Time;durP1;ratioP1;P1;durP2;ratioP2;P2;SDS_P1;SDS_P2;PMS_P1;PMS_P2;Temp;Humidity;BMP_temperature;BMP_pressure;BME280_temperature;BME280_humidity;BME280_pressure;Samples;Min_cycle;Max_cycle;Signal;HPM_P1;HPM_P2
2022/10/03 00:01:47;;;;;;;5.20;3.50;;;;;;;9.51;83.98;99690.61;106444;1274;24250;-77
2022/10/03 00:04:30;;;;;;;5.20;3.50;;;;;;;9.49;83.96;99684.66;106229;1273;22551;-81
2022/10/03 00:07:10;;;;;;;4.70;3.20;;;;;;;9.49;84.14;99687.48;106206;1273;24696;-78
2022/10/03 00:09:58;;;;;;;6.10;3.30;;;;;;;9.52;84.23;99684.64;106395;1273;25373;-83
2022/10/03 00:12:39;;;;;;;6.00;3.20;;;;;;;9.55;83.98;99686.33;105961;1277;22648;-77
2022/10/03 00:15:25;;;;;;;8.70;3.40;;;;;;;9.53;83.91;99689.89;105832;1277;25436;-75
2022/10/03 00:18:11;;;;;;;8.10;3.70;;;;;;;9.50;83.94;99690.47;105829;1276;22758;-77
2022/10/03 00:20:41;;;;;;;4.40;3.20;;;;;;;9.46;84.01;99683.67;105997;1277;24260;-82
2022/10/03 00:23:43;;;;;;;4.40;2.60;;;;;;;9.50;83.98;99683.62;105966;1277;25257;-76
2022/10/03 00:26:37;;;;;;;5.70;2.80;;;;;;;9.48;84.03;99683.81;105980;1277;22917;-78
2022/10/03 00:29:36;;;;;;;7.20;3.30;;;;;;;9.48;84.15;99675.73;105986;1277;22531;-76
2022/10/03 00:32:08;;;;;;;6.20;2.40;;;;;;;9.48;84.09;99677.84;106101;1273;22537;-76
2022/10/03 00:34:41;;;;;;;8.70;2.70;;;;;;;9.46;84.03;99671.71;106291;1274;25415;-77
2022/10/03 00:37:21;;;;;;;3.60;3.00;;;;;;;9.50;84.05;99677.63;106142;1274;25376;-77
2022/10/03 00:40:03;;;;;;;6.40;3.20;;;;;;;9.51;83.98;99674.63;106335;1271;22551;-79
2022/10/03 00:43:04;;;;;;;5.00;2.70;;;;;;;9.49;83.96;99674.13;106320;1271;22554;-79
2022/10/03 00:45:54;;;;;;;5.70;2.60;;;;;;;9.45;83.95;99674.55;105972;1277;24305;-77
2022/10/03 00:48:24;;;;;;;4.00;2.80;;;;;;;9.40;84.04;99666.71;105454;1282;25712;-77
2022/10/03 00:51:08;;;;;;;5.30;2.70;;;;;;;9.45;84.18;99664.18;105570;1281;25339;-79
2022/10/03 00:54:06;;;;;;;6.90;3.20;;;;;;;9.46;84.03;99661.18;105389;1281;165385;-77
2022/10/03 00:56:48;;;;;;;7.10;2.90;;;;;;;9.47;84.05;99658.70;105230;1281;25256;-78
2022/10/03 00:59:36;;;;;;;7.60;3.90;;;;;;;9.48;83.96;99652.70;105031;1285;26024;-77
2022/10/03 01:02:32;;;;;;;7.10;3.40;;;;;;;9.49;84.10;99652.52;105125;1285;24425;-75
2022/10/03 01:05:15;;;;;;;4.10;3.30;;;;;;;9.47;83.93;99645.34;105535;1281;22744;-81
2022/10/03 01:08:00;;;;;;;5.50;3.10;;;;;;;9.45;83.91;99639.73;106131;1274;22591;-86
2022/10/03 01:10:49;;;;;;;6.20;3.10;;;;;;;9.43;84.03;99641.36;105912;1277;22547;-82
2022/10/03 01:13:31;;;;;;;5.90;3.70;;;;;;;9.40;84.27;99642.28;105767;1277;24334;-81
2022/10/03 01:16:16;;;;;;;5.60;3.80;;;;;;;9.38;84.21;99641.97;105809;1275;22550;-78
2022/10/03 01:18:52;;;;;;;6.00;4.10;;;;;;;9.36;84.21;99637.44;106142;1271;22727;-82
2022/10/03 01:21:44;;;;;;;5.80;3.10;;;;;;;9.39;84.37;99634.91;106396;1271;24790;-79
2022/10/03 01:24:23;;;;;;;4.30;3.10;;;;;;;9.42;84.41;99625.92;106413;1271;25326;-79
2022/10/03 01:27:12;;;;;;;4.90;3.50;;;;;;;9.42;84.15;99628.55;106195;1271;26501;-78
2022/10/03 01:33:04;;;;;;;6.10;3.60;;;;;;;9.44;84.27;99619.39;105849;1276;22764;-84
2022/10/03 01:35:57;;;;;;;7.40;3.80;;;;;;;9.48;84.27;99614.75;105924;1277;22679;-77
2022/10/03 01:38:35;;;;;;;6.20;3.90;;;;;;;9.49;84.06;99614.55;105923;1277;24084;-77
2022/10/03 01:41:21;;;;;;;4.50;3.40;;;;;;;9.48;84.04;99611.58;106081;1277;24073;-78
2022/10/03 01:44:08;;;;;;;6.20;3.20;;;;;;;9.46;83.89;99614.41;106036;1277;24417;-76
2022/10/03 01:46:42;;;;;;;;;;;;;;;9.44;84.12;99620.25;105893;1277;22632;-78
2022/10/03 01:49:27;;;;;;;5.20;3.90;;;;;;;9.47;84.20;99621.62;105836;1277;23922;-73
2022/10/03 01:52:03;;;;;;;8.40;3.50;;;;;;;9.47;84.02;99620.73;106650;1271;22537;-76
2022/10/03 01:55:01;;;;;;;4.60;3.10;;;;;;;9.45;84.10;99616.73;106196;1271;22533;-74
2022/10/03 01:57:39;;;;;;;6.60;4.00;;;;;;;9.46;84.18;99616.02;106234;1271;25637;-75
2022/10/03 02:00:16;;;;;;;6.30;3.90;;;;;;;9.47;84.34;99612.64;106280;1271;22553;-75
2022/10/03 02:02:59;;;;;;;4.70;3.40;;;;;;;9.50;84.25;99614.37;106280;1271;22544;-76
2022/10/03 02:05:35;;;;;;;7.40;3.30;;;;;;;9.51;84.21;99616.80;106939;1271;22533;-74
2022/10/03 02:08:16;;;;;;;7.80;3.60;;;;;;;9.54;84.19;99612.70;106303;1271;22539;-77
2022/10/03 02:11:02;;;;;;;8.60;4.00;;;;;;;9.54;84.03;99607.95;106064;1268;22535;-78
2022/10/03 02:13:43;;;;;;;6.30;3.60;;;;;;;9.57;84.11;99606.86;106662;1271;22660;-76
2022/10/03 02:16:16;;;;;;;5.60;3.80;;;;;;;9.56;84.02;99605.27;107299;1271;22544;-73
2022/10/03 02:18:54;;;;;;;6.00;3.60;;;;;;;9.61;84.04;99607.30;106349;1271;22535;-74
2022/10/03 02:21:28;;;;;;;5.50;3.50;;;;;;;9.66;84.09;99598.42;106203;1271;25242;-76
2022/10/03 02:24:16;;;;;;;5.00;3.40;;;;;;;9.67;83.65;99596.85;106211;1271;24409;-76
2022/10/03 02:27:04;;;;;;;6.80;3.30;;;;;;;9.65;83.64;99599.66;106114;1271;24233;-79
2022/10/03 02:29:46;;;;;;;8.20;3.10;;;;;;;9.63;83.71;99596.55;106131;1271;22644;-76
2022/10/03 02:32:54;;;;;;;6.40;3.30;;;;;;;9.62;83.69;99598.31;106203;1271;23933;-77
2022/10/03 02:35:54;;;;;;;7.70;3.80;;;;;;;9.59;83.82;99593.98;105779;1277;24262;-79
2022/10/03 02:38:49;;;;;;;7.90;3.80;;;;;;;9.59;83.83;99594.15;105762;1277;22546;-77
2022/10/03 02:41:31;;;;;;;4.60;3.00;;;;;;;9.58;83.93;99593.64;106212;1284;26032;-80
2022/10/03 02:44:49;;;;;;;5.20;3.40;;;;;;;9.61;83.95;99591.30;105471;1282;22591;-80
2022/10/03 02:47:50;;;;;;;6.60;3.50;;;;;;;9.63;83.75;99591.62;104855;1284;24255;-78
2022/10/03 02:50:52;;;;;;;5.20;3.10;;;;;;;9.59;83.79;99586.95;105174;1284;25265;-76
2022/10/03 02:53:40;;;;;;;6.10;3.30;;;;;;;9.61;83.87;99584.98;104798;1285;23967;-76
2022/10/03 02:56:24;;;;;;;9.40;3.50;;;;;;;9.64;83.79;99590.91;105202;1284;22678;-80
2022/10/03 02:59:03;;;;;;;6.10;4.00;;;;;;;9.62;83.75;99581.98;105223;1280;25325;-78
2022/10/03 03:02:01;;;;;;;3.70;3.20;;;;;;;9.63;83.61;99588.81;105924;1277;25347;-79
2022/10/03 03:05:06;;;;;;;5.30;2.90;;;;;;;9.63;83.62;99588.11;106164;1277;23970;-78
2022/10/03 03:08:11;;;;;;;7.70;4.00;;;;;;;9.66;83.62;99585.41;106111;1271;24228;-79
2022/10/03 03:10:59;;;;;;;5.00;3.10;;;;;;;9.65;83.54;99584.39;106287;1271;23083;-78
2022/10/03 03:13:46;;;;;;;4.20;3.20;;;;;;;9.64;83.69;99583.00;106184;1271;24428;-76
2022/10/03 03:16:32;;;;;;;8.20;3.30;;;;;;;9.65;83.72;99576.30;106271;1271;24437;-76
2022/10/03 03:19:08;;;;;;;5.30;3.50;;;;;;;9.65;83.90;99572.60;106264;1271;25207;-77
2022/10/03 03:22:02;;;;;;;7.40;3.60;;;;;;;9.72;83.76;99571.95;106252;1271;25245;-75
2022/10/03 03:24:48;;;;;;;4.70;3.20;;;;;;;9.74;83.72;99568.03;106177;1271;26518;-74
2022/10/03 03:27:34;;;;;;;9.50;4.00;;;;;;;9.73;83.63;99566.48;106266;1271;24339;-78
2022/10/03 03:30:18;;;;;;;7.60;4.20;;;;;;;9.72;83.62;99567.20;106255;1271;24324;-77
2022/10/03 03:33:15;;;;;;;5.80;3.90;;;;;;;9.73;83.59;99561.73;106217;1271;22544;-77
2022/10/03 03:36:03;;;;;;;7.00;3.50;;;;;;;9.72;83.64;99562.45;106155;1271;24229;-76
2022/10/03 03:39:01;;;;;;;6.00;3.80;;;;;;;9.70;83.88;99556.34;106166;1273;22601;-77
2022/10/03 03:41:55;;;;;;;6.30;3.70;;;;;;;9.68;83.87;99554.27;106186;1274;25385;-78
2022/10/03 03:45:00;;;;;;;7.00;4.20;;;;;;;9.65;84.02;99552.40;106172;1273;26568;-80
2022/10/03 03:48:05;;;;;;;8.70;3.30;;;;;;;9.68;84.10;99556.57;106114;1273;22848;-84
2022/10/03 03:50:56;;;;;;;4.20;3.20;;;;;;;9.70;84.26;99548.08;106137;1273;24968;-80
2022/10/03 03:53:52;;;;;;;4.70;4.00;;;;;;;9.69;84.32;99545.11;106694;1274;22701;-78
2022/10/03 03:56:28;;;;;;;6.60;3.90;;;;;;;9.67;84.29;99551.12;106177;1273;22526;-79
2022/10/03 03:59:04;;;;;;;7.90;3.80;;;;;;;9.66;84.49;99547.11;106780;1271;22690;-78
2022/10/03 04:02:16;;;;;;;4.20;3.80;;;;;;;9.68;84.67;99543.36;106258;1274;22709;-80
2022/10/03 04:05:04;;;;;;;5.40;3.90;;;;;;;9.69;84.68;99544.58;105184;1284;22568;-79
2022/10/03 04:08:10;;;;;;;4.60;3.50;;;;;;;9.69;84.77;99546.17;105838;1279;25587;-76
2022/10/03 04:11:12;;;;;;;5.50;3.50;;;;;;;9.69;84.78;99537.38;106433;1279;22584;-77
2022/10/03 04:13:51;;;;;;;5.60;4.70;;;;;;;9.71;84.99;99533.30;105807;1279;25259;-78
2022/10/03 04:19:56;;;;;;;5.40;3.90;;;;;;;9.75;84.98;99520.55;106098;1279;22588;-79
2022/10/03 04:22:50;;;;;;;5.60;4.40;;;;;;;9.78;84.89;99515.56;106004;1274;22563;-76
2022/10/03 04:25:43;;;;;;;6.40;4.10;;;;;;;9.81;84.79;99514.11;106274;1273;22577;-79
2022/10/03 04:28:33;;;;;;;5.50;4.10;;;;;;;9.81;84.84;99510.95;106227;1273;24290;-80
2022/10/03 04:31:17;;;;;;;4.60;3.60;;;;;;;9.82;84.93;99513.04;106457;1273;22539;-81
2022/10/03 04:33:57;;;;;;;5.90;4.40;;;;;;;9.82;85.23;99507.42;106088;1274;22684;-77
2022/10/03 04:36:37;;;;;;;8.10;3.80;;;;;;;9.78;85.55;99502.21;106101;1274;22549;-78
2022/10/03 04:39:26;;;;;;;6.20;4.00;;;;;;;9.75;85.57;99502.60;106209;1274;23212;-79
2022/10/03 04:42:01;;;;;;;4.70;3.20;;;;;;;9.75;85.88;99504.37;106157;1271;24350;-79
2022/10/03 04:44:46;;;;;;;5.70;3.70;;;;;;;9.74;85.99;99506.85;106121;1271;22649;-77
2022/10/03 04:47:25;;;;;;;4.40;3.80;;;;;;;9.71;86.30;99507.61;106270;1271;24598;-82
2022/10/03 04:50:07;;;;;;;4.10;3.40;;;;;;;9.72;86.49;99503.56;105783;1279;24243;-79
2022/10/03 04:52:41;;;;;;;4.10;3.20;;;;;;;9.70;86.66;99502.02;105925;1279;24569;-79
2022/10/03 04:55:34;;;;;;;5.40;3.60;;;;;;;9.73;86.79;99507.40;105822;1282;24314;-75
2022/10/03 04:58:07;;;;;;;5.20;3.20;;;;;;;9.73;86.84;99495.98;106166;1282;22710;-81
2022/10/03 05:00:53;;;;;;;3.40;3.10;;;;;;;9.72;86.98;99493.89;105551;1282;23968;-79
2022/10/03 05:03:38;;;;;;;4.30;2.80;;;;;;;9.75;87.34;99493.65;105836;1287;25260;-79
2022/10/03 05:06:19;;;;;;;4.00;2.40;;;;;;;9.77;87.18;99497.30;105527;1288;22588;-82
2022/10/03 05:09:16;;;;;;;5.60;3.00;;;;;;;9.80;87.37;99494.95;105084;1283;23952;-79
2022/10/03 05:12:11;;;;;;;3.30;2.70;;;;;;;9.81;87.34;99493.17;105293;1284;22551;-79
2022/10/03 05:15:00;;;;;;;4.00;2.60;;;;;;;9.82;87.54;99490.52;105748;1276;22535;-77
2022/10/03 05:17:45;;;;;;;3.70;2.70;;;;;;;9.84;87.51;99482.56;105931;1276;24409;-80
2022/10/03 05:20:18;;;;;;;4.80;3.10;;;;;;;9.88;87.64;99484.07;105907;1276;24274;-84
2022/10/03 05:23:04;;;;;;;5.70;3.20;;;;;;;9.91;87.55;99484.70;106126;1271;22560;-81
2022/10/03 05:25:57;;;;;;;3.10;2.70;;;;;;;9.95;87.56;99479.17;106382;1271;24801;-79
2022/10/03 05:29:24;;;;;;;3.50;2.40;;;;;;;9.99;87.56;99478.91;106322;1271;22547;-80
2022/10/03 05:32:00;;;;;;;4.00;2.80;;;;;;;10.03;87.42;99475.48;106293;1274;23685;-79
2022/10/03 05:35:03;;;;;;;9.80;3.30;;;;;;;10.08;87.43;99479.61;106452;1271;24266;-77
2022/10/03 05:37:52;;;;;;;3.10;2.30;;;;;;;10.11;87.28;99481.83;106244;1273;23922;-78
2022/10/03 05:40:24;;;;;;;3.90;2.90;;;;;;;10.14;87.10;99479.64;106423;1271;22545;-80
2022/10/03 05:42:56;;;;;;;4.70;3.10;;;;;;;10.17;87.07;99482.93;106330;1272;22549;-79
2022/10/03 05:45:45;;;;;;;4.30;2.80;;;;;;;10.19;86.94;99478.48;106619;1271;25436;-78
2022/10/03 05:48:43;;;;;;;3.30;2.20;;;;;;;10.18;87.10;99475.87;106608;1271;23311;-79
2022/10/03 05:51:38;;;;;;;5.80;2.60;;;;;;;10.19;87.08;99471.63;106935;1271;22581;-79
2022/10/03 05:54:30;;;;;;;3.60;2.40;;;;;;;10.23;87.06;99474.54;107122;1271;24827;-78
2022/10/03 05:57:29;;;;;;;6.40;3.10;;;;;;;10.26;86.88;99477.46;106506;1271;25251;-82
2022/10/03 06:00:13;;;;;;;4.60;2.40;;;;;;;10.29;86.90;99475.63;106301;1274;25247;-82
2022/10/03 06:03:04;;;;;;;4.30;2.20;;;;;;;10.28;86.85;99472.48;106265;1271;22734;-79
2022/10/03 06:06:06;;;;;;;3.90;2.40;;;;;;;10.29;86.73;99476.50;106589;1271;24226;-78
2022/10/03 06:09:11;;;;;;;3.70;2.20;;;;;;;10.33;86.68;99473.96;106640;1271;22709;-80
2022/10/03 06:11:56;;;;;;;3.10;2.20;;;;;;;10.35;86.72;99467.92;106691;1271;22698;-78
2022/10/03 06:14:53;;;;;;;3.90;2.30;;;;;;;10.43;86.83;99469.14;106453;1271;25369;-77
2022/10/03 06:17:26;;;;;;;;;;;;;;;10.48;86.50;99463.45;106216;1271;24422;-77
2022/10/03 06:20:10;;;;;;;5.20;2.70;;;;;;;10.50;86.48;99457.23;106334;1271;25338;-80
2022/10/03 06:23:01;;;;;;;4.10;2.40;;;;;;;10.48;86.41;99459.39;106915;1271;25830;-80
2022/10/03 06:25:53;;;;;;;5.30;2.30;;;;;;;10.48;86.31;99459.23;106496;1271;25257;-80
2022/10/03 06:28:29;;;;;;;5.00;2.50;;;;;;;10.52;86.32;99455.27;106455;1269;25659;-80
2022/10/03 06:31:17;;;;;;;3.60;2.40;;;;;;;10.52;86.24;99449.08;106194;1271;25824;-80
2022/10/03 06:34:30;;;;;;;4.40;2.20;;;;;;;10.53;86.30;99449.95;106290;1271;22539;-79
2022/10/03 06:37:09;;;;;;;13.80;2.80;;;;;;;10.49;86.26;99444.75;106184;1271;22734;-80
2022/10/03 06:39:57;;;;;;;2.40;2.00;;;;;;;10.50;86.31;99445.80;106121;1268;24187;-79
2022/10/03 06:42:51;;;;;;;3.40;2.20;;;;;;;10.47;86.30;99446.04;106191;1271;26505;-80
2022/10/03 06:45:27;;;;;;;2.80;2.00;;;;;;;10.44;86.42;99444.84;106357;1271;22542;-79
2022/10/03 06:48:13;;;;;;;4.50;2.10;;;;;;;10.44;86.78;99447.13;106385;1270;25379;-81
2022/10/03 06:50:50;;;;;;;5.10;2.20;;;;;;;10.42;86.81;99442.59;106202;1274;22605;-80
2022/10/03 06:53:44;;;;;;;2.90;2.00;;;;;;;10.44;86.86;99446.96;106506;1271;22700;-79
2022/10/03 06:56:30;;;;;;;4.20;2.00;;;;;;;10.39;87.12;99447.59;106347;1271;22550;-81
2022/10/03 06:59:30;;;;;;;2.30;1.80;;;;;;;10.40;87.25;99447.92;106280;1275;22762;-79
2022/10/03 07:02:32;;;;;;;3.50;1.90;;;;;;;10.44;87.42;99440.95;106080;1276;22713;-80
2022/10/03 07:05:13;;;;;;;2.00;1.40;;;;;;;10.45;87.21;99442.37;105790;1276;22573;-79
2022/10/03 07:07:53;;;;;;;2.40;1.80;;;;;;;10.49;87.25;99439.83;105499;1281;22563;-79
2022/10/03 07:10:39;;;;;;;3.80;1.90;;;;;;;10.54;87.14;99449.20;105607;1281;23380;-79
2022/10/03 07:13:38;;;;;;;4.80;1.80;;;;;;;10.54;86.97;99444.95;105358;1281;22861;-81
2022/10/03 07:16:30;;;;;;;3.40;1.90;;;;;;;10.65;87.00;99449.83;105402;1281;22563;-80
2022/10/03 07:19:19;;;;;;;7.80;2.20;;;;;;;10.67;86.84;99447.85;105630;1277;22836;-79
2022/10/03 07:22:32;;;;;;;11.30;2.40;;;;;;;10.68;86.67;99445.00;105988;1277;22556;-78
2022/10/03 07:25:29;;;;;;;5.20;2.10;;;;;;;10.72;86.75;99455.83;107056;1271;22536;-76
2022/10/03 07:28:08;;;;;;;3.40;1.90;;;;;;;10.72;86.41;99454.76;106876;1271;22593;-78
2022/10/03 07:31:06;;;;;;;8.60;2.20;;;;;;;10.76;86.41;99450.45;106672;1271;23055;-78
2022/10/03 07:34:05;;;;;;;8.20;2.40;;;;;;;10.80;86.27;99460.37;106613;1271;24353;-79
2022/10/03 07:39:45;;;;;;;6.70;2.40;;;;;;;10.93;86.01;99455.31;106603;1271;22611;-78
2022/10/03 07:42:47;;;;;;;7.50;2.80;;;;;;;10.98;86.01;99454.29;106607;1271;25298;-78
2022/10/03 07:45:29;;;;;;;6.10;1.90;;;;;;;11.08;85.74;99454.92;107257;1272;25286;-78
2022/10/03 07:48:17;;;;;;;8.20;2.60;;;;;;;11.17;85.41;99448.69;106255;1274;22548;-81
2022/10/03 07:51:03;;;;;;;7.00;2.30;;;;;;;11.23;84.97;99449.42;106732;1274;22686;-80
2022/10/03 07:53:50;;;;;;;5.40;2.10;;;;;;;11.24;84.75;99449.73;105863;1280;22604;-80
2022/10/03 07:56:38;;;;;;;6.80;2.00;;;;;;;11.24;84.47;99455.91;105655;1280;22547;-80
2022/10/03 07:59:55;;;;;;;5.80;2.00;;;;;;;11.27;84.57;99450.17;106137;1280;24190;-79
2022/10/03 08:02:43;;;;;;;8.90;2.20;;;;;;;11.32;84.33;99454.29;105985;1280;23078;-79
2022/10/03 08:05:49;;;;;;;7.20;2.00;;;;;;;11.33;83.84;99451.45;105606;1280;22688;-80
2022/10/03 08:08:53;;;;;;;5.40;1.70;;;;;;;11.29;83.94;99454.55;105660;1282;25391;-79
2022/10/03 08:11:57;;;;;;;5.20;1.90;;;;;;;11.27;83.85;99458.98;105823;1280;22752;-81
2022/10/03 08:14:31;;;;;;;5.80;1.80;;;;;;;11.27;83.93;99456.17;106332;1271;23002;-79
2022/10/03 08:17:17;;;;;;;6.20;2.10;;;;;;;11.28;83.82;99452.09;106233;1271;22575;-77
2022/10/03 08:20:12;;;;;;;4.30;1.90;;;;;;;11.30;83.81;99456.99;106289;1271;22685;-77
2022/10/03 08:22:58;;;;;;;6.60;2.40;;;;;;;11.32;83.61;99451.13;105782;1277;24295;-77
2022/10/03 08:25:32;;;;;;;4.70;2.20;;;;;;;11.33;83.52;99454.42;105888;1276;22864;-79
2022/10/03 08:28:21;;;;;;;10.30;2.00;;;;;;;11.37;83.49;99444.64;105819;1276;22576;-80
2022/10/03 08:31:03;;;;;;;4.10;2.20;;;;;;;11.40;83.18;99454.08;105297;1283;24073;-77
2022/10/03 08:33:52;;;;;;;6.20;2.50;;;;;;;11.41;82.93;99451.92;105360;1282;22562;-80
2022/10/03 08:36:48;;;;;;;4.80;2.60;;;;;;;11.42;82.77;99454.91;105312;1282;23064;-79
2022/10/03 08:39:52;;;;;;;5.60;2.00;;;;;;;11.41;82.53;99456.52;105308;1282;24317;-79
2022/10/03 08:42:38;;;;;;;7.10;2.30;;;;;;;11.43;82.51;99452.95;105683;1278;24277;-79
2022/10/03 08:45:24;;;;;;;5.20;2.30;;;;;;;11.46;82.54;99454.10;105775;1277;22532;-78
2022/10/03 08:48:34;;;;;;;7.20;2.80;;;;;;;11.44;82.34;99461.00;106301;1277;22693;-79
2022/10/03 08:51:46;;;;;;;7.80;2.50;;;;;;;11.41;82.19;99456.67;106210;1271;22993;-80
2022/10/03 08:54:50;;;;;;;7.80;2.50;;;;;;;11.40;82.33;99457.23;106834;1271;22609;-81
2022/10/03 08:57:32;;;;;;;5.10;2.60;;;;;;;11.41;82.40;99456.70;106315;1271;22622;-77
2022/10/03 09:00:02;;;;;;;6.10;2.90;;;;;;;11.42;82.52;99464.08;106377;1271;22648;-78
2022/10/03 09:02:47;;;;;;;8.70;2.20;;;;;;;11.42;82.45;99464.59;106340;1271;25647;-80
2022/10/03 09:05:47;;;;;;;7.50;2.70;;;;;;;11.45;82.33;99466.45;106386;1271;22717;-80
2022/10/03 09:08:42;;;;;;;7.50;2.70;;;;;;;11.48;82.29;99467.25;106314;1274;25315;-77
2022/10/03 09:11:23;;;;;;;6.20;2.40;;;;;;;11.53;82.20;99468.70;106210;1271;25361;-79
2022/10/03 09:14:00;;;;;;;6.00;2.60;;;;;;;11.54;81.81;99474.15;106320;1271;25710;-79
2022/10/03 09:16:52;;;;;;;4.40;2.30;;;;;;;11.53;81.90;99470.83;106789;1271;24157;-79
2022/10/03 09:19:51;;;;;;;8.30;2.70;;;;;;;11.56;81.92;99470.56;106255;1271;24216;-77
2022/10/03 09:22:43;;;;;;;5.40;2.40;;;;;;;11.58;82.20;99469.10;106260;1271;25248;-79
2022/10/03 09:25:40;;;;;;;7.80;2.50;;;;;;;11.51;82.57;99467.16;106369;1271;25369;-80
2022/10/03 09:28:25;;;;;;;5.40;2.10;;;;;;;11.44;82.63;99464.72;106310;1271;24148;-79
2022/10/03 09:31:23;;;;;;;10.30;2.30;;;;;;;11.37;82.92;99469.13;106348;1271;25227;-80
2022/10/03 09:34:05;;;;;;;5.30;2.50;;;;;;;11.31;82.94;99469.29;106410;1271;23184;-76
2022/10/03 09:37:02;;;;;;;3.50;2.20;;;;;;;11.30;83.30;99485.54;106351;1271;22896;-80
2022/10/03 09:39:47;;;;;;;3.70;2.50;;;;;;;11.27;83.40;99484.73;106370;1271;22597;-79
2022/10/03 09:42:42;;;;;;;5.00;2.20;;;;;;;11.27;83.08;99483.14;106326;1271;25339;-80
2022/10/03 09:45:25;;;;;;;2.40;2.00;;;;;;;11.31;83.16;99488.68;106192;1271;22867;-81
2022/10/03 09:48:28;;;;;;;2.80;2.20;;;;;;;11.34;83.10;99494.42;106827;1271;24228;-79
2022/10/03 09:51:00;;;;;;;3.40;2.50;;;;;;;11.37;83.14;99490.63;106288;1277;22490;-79
2022/10/03 09:53:31;;;;;;;3.70;2.60;;;;;;;11.40;82.89;99497.27;106403;1278;22534;-79
2022/10/03 09:56:29;;;;;;;2.20;2.00;;;;;;;11.43;82.69;99506.71;106417;1277;22557;-80
2022/10/03 09:59:04;;;;;;;2.70;2.30;;;;;;;11.48;82.74;99507.28;106006;1278;24367;-82
2022/10/03 10:01:52;;;;;;;2.70;2.10;;;;;;;11.51;82.78;99508.93;105975;1277;22591;-80
2022/10/03 10:04:55;;;;;;;2.60;1.80;;;;;;;11.54;82.70;99501.13;106826;1277;22718;-81
2022/10/03 10:07:28;;;;;;;2.80;2.00;;;;;;;11.59;82.59;99505.55;106082;1278;24356;-79
2022/10/03 10:10:15;;;;;;;3.20;1.90;;;;;;;11.64;82.39;99511.60;106296;1277;22614;-81
2022/10/03 10:12:54;;;;;;;;;;;;;;;11.69;82.32;99513.41;106134;1277;23154;-81
2022/10/03 10:15:52;;;;;;;2.30;1.70;;;;;;;11.70;82.40;99523.09;106023;1278;25557;-81
2022/10/03 10:18:53;;;;;;;1.90;1.50;;;;;;;11.69;82.66;99524.88;105731;1281;25686;-80
2022/10/03 10:21:35;;;;;;;2.20;1.90;;;;;;;11.69;82.83;99528.73;107114;1281;22578;-78
2022/10/03 10:24:23;;;;;;;2.20;2.00;;;;;;;11.68;83.11;99539.36;105968;1281;25257;-81
2022/10/03 10:27:15;;;;;;;2.30;1.80;;;;;;;11.68;83.48;99537.61;105666;1281;22553;-80
2022/10/03 10:29:47;;;;;;;3.80;2.00;;;;;;;11.63;83.68;99544.95;106240;1277;23806;-79
2022/10/03 10:32:52;;;;;;;2.90;2.60;;;;;;;11.60;83.94;99544.17;106043;1278;26511;-78
2022/10/03 10:35:40;;;;;;;5.00;3.30;;;;;;;11.59;84.06;99540.66;106061;1274;24293;-85
2022/10/03 10:38:25;;;;;;;6.20;3.50;;;;;;;11.59;84.01;99544.71;106476;1272;25245;-81
2022/10/03 10:41:29;;;;;;;7.50;3.40;;;;;;;11.55;84.30;99555.05;106427;1271;23950;-79
2022/10/03 10:44:08;;;;;;;3.70;2.90;;;;;;;11.44;84.92;99561.52;106354;1271;25366;-80
2022/10/03 10:47:13;;;;;;;7.30;3.00;;;;;;;11.31;85.62;99557.43;106470;1271;23335;-78
2022/10/03 10:50:24;;;;;;;10.30;2.90;;;;;;;11.29;86.02;99574.05;105765;1278;24585;-77
2022/10/03 10:53:28;;;;;;;4.00;2.30;;;;;;;11.30;86.02;99583.01;105822;1278;22551;-81
2022/10/03 10:56:32;;;;;;;3.50;1.80;;;;;;;11.38;85.83;99579.45;105812;1277;22743;-77
2022/10/03 10:59:44;;;;;;;2.90;1.50;;;;;;;11.47;85.66;99584.34;105824;1278;22567;-80
2022/10/03 11:02:33;;;;;;;2.00;1.20;;;;;;;11.51;85.20;99595.70;105807;1278;22542;-80
2022/10/03 11:05:28;;;;;;;1.20;1.10;;;;;;;11.53;85.23;99600.23;106550;1278;22951;-78
2022/10/03 11:08:19;;;;;;;2.10;1.20;;;;;;;11.62;84.83;99608.64;106403;1271;22682;-81
2022/10/03 11:11:15;;;;;;;1.10;1.00;;;;;;;11.69;84.19;99605.45;106379;1271;22702;-78
2022/10/03 11:13:55;;;;;;;1.00;0.90;;;;;;;11.88;83.19;99619.98;106465;1271;27060;-79
2022/10/03 11:17:03;;;;;;;1.20;0.90;;;;;;;12.26;82.68;99625.30;106453;1271;23404;-78
2022/10/03 11:20:02;;;;;;;2.20;0.80;;;;;;;12.99;79.22;99631.66;106204;1271;23186;-78
2022/10/03 11:23:12;;;;;;;1.20;0.70;;;;;;;13.31;75.84;99638.61;106205;1271;25257;-79
2022/10/03 11:25:49;;;;;;;2.10;1.00;;;;;;;13.29;73.70;99639.04;105791;1277;23022;-78
2022/10/03 11:29:03;;;;;;;1.00;0.90;;;;;;;13.30;73.08;99646.94;105978;1274;24399;-78
2022/10/03 11:32:08;;;;;;;1.20;1.10;;;;;;;13.42;72.52;99656.45;105670;1278;24319;-79
2022/10/03 11:34:41;;;;;;;2.00;1.10;;;;;;;13.78;69.62;99650.17;105909;1275;22620;-80
2022/10/03 11:37:23;;;;;;;1.00;1.00;;;;;;;14.01;66.52;99659.11;106172;1274;24556;-79
2022/10/03 11:40:28;;;;;;;1.20;1.00;;;;;;;14.17;66.55;99661.73;105598;1281;22863;-78
2022/10/03 11:43:32;;;;;;;2.40;1.20;;;;;;;14.42;66.34;99662.80;105766;1280;22879;-78
2022/10/03 11:46:18;;;;;;;3.10;1.40;;;;;;;14.62;63.69;99666.88;105672;1281;22697;-78
2022/10/03 11:48:53;;;;;;;1.80;0.90;;;;;;;14.52;63.89;99668.65;105039;1287;25333;-79
2022/10/03 11:51:42;;;;;;;2.40;1.20;;;;;;;14.71;64.38;99671.31;105079;1287;25393;-78
2022/10/03 11:54:17;;;;;;;1.20;1.00;;;;;;;14.99;63.47;99662.12;105033;1287;22570;-79
2022/10/03 11:57:25;;;;;;;1.60;1.00;;;;;;;15.12;59.49;99661.08;105375;1286;22562;-80
2022/10/03 12:00:16;;;;;;;1.60;1.00;;;;;;;15.17;58.10;99653.80;106441;1280;25502;-79
2022/10/03 12:03:04;;;;;;;1.10;1.00;;;;;;;15.18;56.81;99667.79;106373;1282;22784;-79
2022/10/03 12:08:53;;;;;;;1.80;1.30;;;;;;;15.21;56.68;99665.88;107514;1281;25319;-78
2022/10/03 12:09:13;;;;;;;1.10;1.00;;;;;;;15.33;57.37;99673.56;107801;1274;22523;-79
2022/10/03 12:11:55;;;;;;;2.90;1.10;;;;;;;15.27;55.07;99662.78;106673;1274;23954;-80
2022/10/03 12:14:33;;;;;;;1.10;1.00;;;;;;;15.04;54.71;99672.71;107960;1274;23132;-79
2022/10/03 12:17:13;;;;;;;1.70;1.00;;;;;;;14.89;55.46;99680.42;108081;1274;23553;-77
2022/10/03 12:20:03;;;;;;;3.80;1.00;;;;;;;15.08;55.96;99681.82;106711;1275;22927;-78
2022/10/03 12:22:41;;;;;;;3.00;1.00;;;;;;;15.43;54.03;99663.38;106850;1271;22484;-76
2022/10/03 12:25:18;;;;;;;2.20;1.00;;;;;;;15.74;53.70;99675.80;106963;1271;23928;-79
2022/10/03 12:27:57;;;;;;;1.20;1.00;;;;;;;16.03;53.10;99681.17;106867;1271;24312;-79
2022/10/03 12:30:33;;;;;;;2.20;1.20;;;;;;;16.10;52.43;99685.52;107821;1271;25613;-78
2022/10/03 12:33:18;;;;;;;3.00;1.40;;;;;;;16.10;53.51;99689.57;106615;1271;22862;-79
2022/10/03 12:35:55;;;;;;;4.30;1.10;;;;;;;16.04;53.44;99693.02;106606;1271;23442;-79
2022/10/03 12:39:00;;;;;;;1.80;1.10;;;;;;;16.17;53.77;99696.22;106210;1271;22646;-80
2022/10/03 12:42:01;;;;;;;2.30;1.10;;;;;;;16.47;51.14;99694.90;106503;1271;25453;-78
2022/10/03 12:44:44;;;;;;;1.70;0.80;;;;;;;16.36;49.60;99697.19;106612;1271;25516;-76
2022/10/03 12:47:35;;;;;;;3.40;1.20;;;;;;;16.09;49.74;99701.86;106766;1271;22869;-78
2022/10/03 12:50:43;;;;;;;3.80;1.20;;;;;;;16.04;49.48;99705.80;106704;1271;24272;-76
2022/10/03 12:53:15;;;;;;;1.20;1.10;;;;;;;16.12;49.81;99723.45;106380;1271;214448;-77
2022/10/03 12:56:05;;;;;;;2.00;1.10;;;;;;;16.26;48.89;99721.55;106628;1271;24100;-79
2022/10/03 12:59:24;;;;;;;1.80;0.90;;;;;;;16.37;48.75;99723.59;106779;1271;26700;-79
2022/10/03 13:02:13;;;;;;;2.90;1.10;;;;;;;16.72;49.79;99725.61;106454;1271;24262;-79
2022/10/03 13:04:55;;;;;;;1.60;1.00;;;;;;;16.86;48.82;99733.68;106579;1271;22545;-81
2022/10/03 13:07:27;;;;;;;2.00;0.90;;;;;;;16.99;46.83;99726.67;106335;1277;24276;-80
2022/10/03 13:10:09;;;;;;;1.20;0.90;;;;;;;17.05;46.21;99738.18;105995;1281;22882;-81
2022/10/03 13:12:48;;;;;;;1.10;1.00;;;;;;;17.53;47.15;99741.79;105819;1281;22573;-81
2022/10/03 13:15:38;;;;;;;0.70;0.70;;;;;;;18.27;46.50;99741.77;105861;1279;24223;-81
2022/10/03 13:18:26;;;;;;;2.90;0.80;;;;;;;18.32;44.80;99740.42;105916;1281;26505;-83
2022/10/03 13:20:53;;;;;;;3.70;0.80;;;;;;;17.99;45.00;99750.40;105819;1281;23950;-78